createdAt,value
2018-10-06T00:01:17.186Z,15.13
2018-10-06T00:03:48.765Z,14.67
2018-10-06T00:06:17.563Z,14.47
2018-10-06T00:08:46.683Z,14.10
2018-10-06T00:11:15.583Z,14.33
2018-10-06T00:13:44.366Z,13.87
2018-10-06T00:16:13.197Z,14.93
2018-10-06T00:18:41.989Z,14.83
2018-10-06T00:21:12.320Z,15.43
2018-10-06T00:23:42.501Z,15.27
2018-10-06T00:26:12.028Z,15.07
2018-10-06T00:28:41.077Z,14.50
2018-10-06T00:31:10.713Z,15.47
2018-10-06T00:33:41.092Z,15.93
2018-10-06T00:36:11.082Z,15.07
2018-10-06T00:38:41.618Z,14.90
2018-10-06T00:41:12.894Z,15.33
2018-10-06T00:43:43.001Z,14.87
2018-10-06T00:46:11.764Z,15.07
2018-10-06T00:48:40.497Z,14.47
2018-10-06T00:51:09.238Z,14.13
2018-10-06T00:53:38.380Z,15.20
2018-10-06T00:56:07.187Z,15.17
2018-10-06T00:58:36.013Z,14.87
2018-10-06T01:01:04.793Z,14.63
2018-10-06T01:03:33.552Z,14.50
2018-10-06T01:06:02.273Z,14.60
2018-10-06T01:08:31.184Z,14.63
2018-10-06T01:11:00.047Z,14.60
2018-10-06T01:13:28.815Z,15.40
2018-10-06T01:15:57.949Z,15.70
2018-10-06T01:18:27.150Z,15.57
2018-10-06T01:20:56.050Z,15.13
2018-10-06T01:23:24.865Z,14.90
2018-10-06T01:25:53.714Z,15.43
2018-10-06T01:28:23.393Z,14.77
2018-10-06T01:30:53.540Z,15.23
2018-10-06T01:33:23.485Z,16.03
2018-10-06T01:35:52.834Z,14.93
2018-10-06T01:38:21.582Z,14.67
2018-10-06T01:40:50.959Z,14.40
2018-10-06T01:43:21.396Z,16.07
2018-10-06T01:45:51.082Z,14.90
2018-10-06T01:48:20.134Z,14.90
2018-10-06T01:50:49.806Z,15.33
2018-10-06T01:53:18.934Z,14.43
2018-10-06T01:55:47.667Z,16.03
2018-10-06T01:58:17.821Z,15.80
2018-10-06T02:00:46.557Z,16.00
2018-10-06T02:03:15.314Z,15.63
2018-10-06T02:05:44.140Z,16.63
2018-10-06T02:08:13.566Z,15.17
2018-10-06T02:10:42.922Z,14.63
2018-10-06T02:13:12.255Z,15.67
2018-10-06T02:15:42.093Z,15.70
2018-10-06T02:18:11.374Z,15.13
2018-10-06T02:20:40.527Z,16.23
2018-10-06T02:23:09.671Z,15.67
2018-10-06T02:25:38.869Z,16.00
2018-10-06T02:28:08.208Z,16.00
2018-10-06T02:30:37.439Z,16.10
2018-10-06T02:33:06.958Z,16.40
2018-10-06T02:35:36.177Z,16.93
2018-10-06T02:38:05.945Z,16.83
2018-10-06T02:40:35.473Z,15.80
2018-10-06T02:43:04.496Z,15.77
2018-10-06T02:45:33.310Z,16.53
2018-10-06T02:48:02.275Z,16.10
2018-10-06T02:50:31.292Z,16.40
2018-10-06T02:53:00.476Z,16.97
2018-10-06T02:55:29.767Z,16.67
2018-10-06T02:57:58.495Z,16.20
2018-10-06T03:00:27.266Z,16.57
2018-10-06T03:02:56.239Z,17.10
2018-10-06T03:05:25.551Z,15.20
2018-10-06T03:07:54.255Z,17.07
2018-10-06T03:10:23.082Z,15.77
2018-10-06T03:12:51.823Z,15.47
2018-10-06T03:15:20.898Z,15.80
2018-10-06T03:17:49.601Z,16.57
2018-10-06T03:20:18.720Z,16.93
2018-10-06T03:22:47.922Z,15.70
2018-10-06T03:25:18.380Z,15.73
2018-10-06T03:27:48.935Z,15.87
2018-10-06T03:30:18.982Z,15.37
2018-10-06T03:32:50.289Z,15.80
2018-10-06T03:35:19.919Z,15.90
2018-10-06T03:37:49.954Z,16.50
2018-10-06T03:40:19.370Z,16.97
2018-10-06T03:42:48.987Z,16.20
2018-10-06T03:45:18.540Z,16.80
2018-10-06T03:47:49.077Z,15.40
2018-10-06T03:50:19.586Z,16.60
2018-10-06T03:52:49.419Z,16.67
2018-10-06T03:55:19.134Z,17.80
2018-10-06T03:57:48.439Z,17.43
2018-10-06T04:00:18.126Z,15.27
2018-10-06T04:02:47.651Z,16.33
2018-10-06T04:05:16.553Z,16.93
2018-10-06T04:07:46.216Z,18.50
2018-10-06T04:10:16.098Z,17.10
2018-10-06T04:12:45.792Z,15.67
2018-10-06T04:15:14.907Z,15.87
2018-10-06T04:17:44.095Z,16.63
2018-10-06T04:20:13.101Z,16.30
2018-10-06T04:22:42.096Z,17.20
2018-10-06T04:25:11.125Z,16.70
2018-10-06T04:27:40.150Z,17.50
2018-10-06T04:30:10.831Z,16.87
2018-10-06T04:32:39.907Z,16.30
2018-10-06T04:35:09.566Z,16.63
2018-10-06T04:37:40.214Z,15.30
2018-10-06T04:40:09.975Z,16.20
2018-10-06T04:42:39.740Z,15.83
2018-10-06T04:45:08.599Z,16.20
2018-10-06T04:47:37.663Z,16.50
2018-10-06T04:50:06.656Z,16.90
2018-10-06T04:52:35.419Z,16.90
2018-10-06T04:55:04.734Z,16.47
2018-10-06T04:57:33.430Z,16.50
2018-10-06T05:00:02.614Z,17.03
2018-10-06T05:02:31.444Z,16.13
2018-10-06T05:05:00.429Z,16.47
2018-10-06T05:07:29.274Z,15.87
2018-10-06T05:09:58.269Z,16.23
2018-10-06T05:12:27.444Z,15.80
2018-10-06T05:14:56.819Z,15.67
2018-10-06T05:17:25.940Z,16.73
2018-10-06T05:19:55.013Z,16.40
2018-10-06T05:22:23.789Z,17.07
2018-10-06T05:24:53.194Z,17.33
2018-10-06T05:27:21.919Z,17.40
2018-10-06T05:29:50.606Z,17.00
2018-10-06T05:32:20.028Z,16.37
2018-10-06T05:34:49.482Z,16.17
2018-10-06T05:37:18.371Z,16.70
2018-10-06T05:39:47.116Z,16.73
2018-10-06T05:42:15.825Z,15.60
2018-10-06T05:44:44.492Z,17.67
2018-10-06T05:47:13.501Z,16.60
2018-10-06T05:49:42.351Z,15.73
2018-10-06T05:52:11.760Z,16.70
2018-10-06T05:54:40.548Z,16.20
2018-10-06T05:57:09.630Z,16.10
2018-10-06T05:59:38.623Z,15.63
2018-10-06T06:02:08.205Z,16.20
2018-10-06T06:04:36.966Z,15.53
2018-10-06T06:07:06.326Z,17.30
2018-10-06T06:09:35.058Z,15.53
2018-10-06T06:12:03.767Z,17.17
2018-10-06T06:14:33.761Z,16.93
2018-10-06T06:17:02.774Z,16.40
2018-10-06T06:19:32.480Z,15.87
2018-10-06T06:22:03.380Z,16.70
2018-10-06T06:24:32.773Z,15.90
2018-10-06T06:27:02.336Z,15.30
2018-10-06T06:29:31.359Z,16.37
2018-10-06T06:32:00.526Z,15.83
2018-10-06T06:34:31.973Z,16.70
2018-10-06T06:37:01.078Z,16.17
2018-10-06T06:39:30.341Z,15.00
2018-10-06T06:42:00.544Z,15.13
2018-10-06T06:44:31.056Z,15.33
2018-10-06T06:47:00.513Z,15.23
2018-10-06T06:49:29.300Z,15.50
2018-10-06T06:51:58.084Z,15.33
2018-10-06T06:54:26.925Z,15.50
2018-10-06T06:56:56.578Z,17.00
2018-10-06T06:59:26.173Z,15.50
2018-10-06T07:01:55.153Z,15.23
2018-10-06T07:04:24.249Z,16.33
2018-10-06T07:06:53.710Z,15.80
2018-10-06T07:09:22.600Z,15.67
2018-10-06T07:11:51.384Z,15.87
2018-10-06T07:14:20.248Z,16.00
2018-10-06T07:16:49.016Z,16.60
2018-10-06T07:19:18.346Z,16.40
2018-10-06T07:21:47.393Z,15.33
2018-10-06T07:24:16.385Z,16.40
2018-10-06T07:26:45.215Z,15.33
2018-10-06T07:29:13.983Z,16.10
2018-10-06T07:31:42.925Z,16.10
2018-10-06T07:34:11.722Z,15.20
2018-10-06T07:36:40.515Z,15.90
2018-10-06T07:39:09.723Z,14.07
2018-10-06T07:41:38.650Z,16.10
2018-10-06T07:44:07.743Z,15.57
2018-10-06T07:46:36.566Z,14.83
2018-10-06T07:49:05.851Z,15.43
2018-10-06T07:51:34.681Z,15.60
2018-10-06T07:54:03.898Z,14.70
2018-10-06T07:56:32.908Z,15.30
2018-10-06T07:59:02.012Z,14.87
2018-10-06T08:01:31.102Z,14.80
2018-10-06T08:04:00.026Z,13.80
2018-10-06T08:06:29.316Z,15.10
2018-10-06T08:08:58.452Z,14.70
2018-10-06T08:11:27.382Z,13.93
2018-10-06T08:13:57.978Z,15.10
2018-10-06T08:16:27.094Z,14.50
2018-10-06T08:18:56.308Z,13.83
2018-10-06T08:21:26.308Z,14.47
2018-10-06T08:23:55.639Z,14.27
2018-10-06T08:26:25.123Z,13.80
2018-10-06T08:28:53.907Z,14.20
2018-10-06T08:31:22.809Z,14.83
2018-10-06T08:33:51.647Z,15.17
2018-10-06T08:36:20.703Z,14.20
2018-10-06T08:38:49.882Z,14.30
2018-10-06T08:41:19.502Z,14.67
2018-10-06T08:43:48.603Z,14.80
2018-10-06T08:46:18.335Z,13.83
2018-10-06T08:48:47.098Z,14.33
2018-10-06T08:51:15.964Z,16.53
2018-10-06T08:53:44.757Z,13.77
2018-10-06T08:56:13.757Z,14.60
2018-10-06T08:58:42.484Z,13.93
2018-10-06T09:01:11.371Z,13.30
2018-10-06T09:03:40.207Z,14.80
2018-10-06T09:06:09.083Z,13.33
2018-10-06T09:08:38.866Z,13.97
2018-10-06T09:11:07.691Z,14.20
2018-10-06T09:13:36.524Z,14.00
2018-10-06T09:16:06.272Z,13.73
2018-10-06T09:18:35.049Z,14.70
2018-10-06T09:21:03.822Z,14.43
2018-10-06T09:23:32.626Z,14.40
2018-10-06T09:26:01.576Z,13.93
2018-10-06T09:28:30.728Z,14.90
2018-10-06T09:31:00.024Z,13.70
2018-10-06T09:33:28.923Z,13.27
2018-10-06T09:35:57.707Z,16.20
2018-10-06T09:38:26.546Z,13.53
2018-10-06T09:40:55.666Z,14.27
2018-10-06T09:43:24.794Z,13.23
2018-10-06T09:45:53.764Z,13.80
2018-10-06T09:48:22.721Z,13.87
2018-10-06T09:50:51.844Z,13.10
2018-10-06T09:53:20.786Z,13.70
2018-10-06T09:55:49.806Z,13.00
2018-10-06T09:58:18.743Z,14.17
2018-10-06T10:00:53.048Z,12.90
2018-10-06T10:03:26.944Z,12.77
2018-10-06T10:05:56.329Z,13.00
2018-10-06T10:08:25.531Z,13.43
2018-10-06T10:10:54.411Z,13.73
2018-10-06T10:13:24.015Z,13.13
2018-10-06T10:15:52.940Z,13.20
2018-10-06T10:18:22.008Z,13.27
2018-10-06T10:20:50.550Z,13.67
2018-10-06T10:23:19.997Z,13.03
2018-10-06T10:25:48.722Z,13.50
2018-10-06T10:28:17.831Z,13.60
2018-10-06T10:30:46.629Z,12.50
2018-10-06T10:33:15.359Z,12.97
2018-10-06T10:35:44.387Z,12.83
2018-10-06T10:38:13.165Z,13.67
2018-10-06T10:40:42.025Z,12.53
2018-10-06T10:43:10.899Z,13.20
2018-10-06T10:45:40.041Z,13.20
2018-10-06T10:48:09.578Z,13.07
2018-10-06T10:50:40.119Z,13.73
2018-10-06T10:53:09.172Z,13.20
2018-10-06T10:55:38.020Z,13.27
2018-10-06T10:58:06.964Z,12.87
2018-10-06T11:00:36.214Z,12.37
2018-10-06T11:03:05.018Z,14.10
2018-10-06T11:05:33.783Z,13.60
2018-10-06T11:08:02.605Z,13.73
2018-10-06T11:10:31.798Z,14.50
2018-10-06T11:13:01.311Z,12.33
2018-10-06T11:15:30.182Z,12.90
2018-10-06T11:17:59.112Z,12.93
2018-10-06T11:20:28.194Z,12.77
2018-10-06T11:22:57.148Z,12.83
2018-10-06T11:25:26.060Z,13.17
2018-10-06T11:27:54.865Z,12.13
2018-10-06T11:30:24.039Z,12.60
2018-10-06T11:32:53.734Z,11.83
2018-10-06T11:35:22.600Z,12.40
2018-10-06T11:37:51.830Z,12.40
2018-10-06T11:40:20.668Z,12.80
2018-10-06T11:42:50.307Z,12.80
2018-10-06T11:45:19.833Z,12.40
2018-10-06T11:47:48.770Z,13.33
2018-10-06T11:50:18.149Z,12.53
2018-10-06T11:52:47.144Z,12.33
2018-10-06T11:55:15.924Z,12.83
2018-10-06T11:57:45.193Z,12.97
2018-10-06T12:00:14.084Z,12.73
2018-10-06T12:02:43.170Z,13.40
2018-10-06T12:05:12.372Z,12.23
2018-10-06T12:07:41.202Z,12.30
2018-10-06T12:10:10.619Z,11.93
2018-10-06T12:12:39.467Z,12.90
2018-10-06T12:15:08.364Z,12.60
2018-10-06T12:17:37.479Z,13.20
2018-10-06T12:20:06.861Z,13.90
2018-10-06T12:22:36.301Z,13.10
2018-10-06T12:25:05.670Z,12.33
2018-10-06T12:27:34.500Z,12.73
2018-10-06T12:30:03.353Z,12.27
2018-10-06T12:32:32.689Z,11.80
2018-10-06T12:35:01.875Z,12.20
2018-10-06T12:37:31.078Z,13.00
2018-10-06T12:39:59.921Z,11.93
2018-10-06T12:42:28.823Z,13.10
2018-10-06T12:44:57.498Z,12.27
2018-10-06T12:47:27.247Z,12.17
2018-10-06T12:49:56.011Z,11.97
2018-10-06T12:52:24.800Z,11.90
2018-10-06T12:54:53.584Z,12.00
2018-10-06T12:57:22.597Z,13.40
2018-10-06T12:59:51.412Z,12.10
2018-10-06T13:02:20.299Z,11.70
2018-10-06T13:04:49.089Z,11.73
2018-10-06T13:07:18.398Z,12.20
2018-10-06T13:09:47.207Z,11.60
2018-10-06T13:12:16.465Z,14.30
2018-10-06T13:14:45.528Z,11.40
2018-10-06T13:17:14.702Z,11.07
2018-10-06T13:19:44.271Z,11.30
2018-10-06T13:22:13.533Z,11.63
2018-10-06T13:24:42.301Z,11.20
2018-10-06T13:27:11.523Z,11.23
2018-10-06T13:29:40.483Z,10.90
2018-10-06T13:32:09.619Z,10.50
2018-10-06T13:34:38.821Z,11.40
2018-10-06T13:37:08.042Z,10.80
2018-10-06T13:39:36.832Z,10.90
2018-10-06T13:42:06.396Z,10.97
2018-10-06T13:44:35.185Z,12.10
2018-10-06T13:47:04.432Z,11.07
2018-10-06T13:49:33.251Z,10.63
2018-10-06T13:52:02.107Z,10.40
2018-10-06T13:54:31.254Z,10.37
2018-10-06T13:57:00.194Z,10.30
2018-10-06T13:59:29.089Z,10.03
2018-10-06T14:01:58.349Z,10.40
2018-10-06T14:04:27.551Z,11.23
2018-10-06T14:06:56.385Z,10.10
2018-10-06T14:09:25.261Z,11.17
2018-10-06T14:11:54.350Z,10.07
2018-10-06T14:14:23.211Z,10.23
2018-10-06T14:16:52.084Z,10.33
2018-10-06T14:19:20.956Z,10.60
2018-10-06T14:21:49.800Z,10.57
2018-10-06T14:24:18.916Z,10.50
2018-10-06T14:26:47.950Z,10.33
2018-10-06T14:29:18.002Z,10.57
2018-10-06T14:31:47.537Z,11.17
2018-10-06T14:34:16.378Z,11.10
2018-10-06T14:36:45.297Z,10.93
2018-10-06T14:39:14.166Z,10.37
2018-10-06T14:41:43.125Z,10.53
2018-10-06T14:44:12.049Z,10.83
2018-10-06T14:46:40.881Z,10.83
2018-10-06T14:49:10.491Z,10.90
2018-10-06T14:51:40.362Z,10.90
2018-10-06T14:54:09.499Z,11.40
2018-10-06T14:56:38.330Z,10.13
2018-10-06T14:59:07.537Z,11.10
2018-10-06T15:01:36.403Z,11.20
2018-10-06T15:04:05.573Z,11.40
2018-10-06T15:06:34.586Z,10.90
2018-10-06T15:09:04.515Z,10.87
2018-10-06T15:11:34.190Z,10.73
2018-10-06T15:14:02.984Z,12.73
2018-10-06T15:16:32.306Z,11.70
2018-10-06T15:19:01.513Z,12.60
2018-10-06T15:21:30.714Z,12.50
2018-10-06T15:23:59.576Z,14.80
2018-10-06T15:26:29.122Z,23.27
2018-10-06T15:28:59.043Z,13.13
2018-10-06T15:31:28.492Z,11.77
2018-10-06T15:33:57.383Z,13.17
2018-10-06T15:36:26.260Z,14.93
2018-10-06T15:38:55.273Z,13.80
2018-10-06T15:41:24.128Z,14.70
2018-10-06T15:43:52.946Z,14.20
2018-10-06T15:46:21.755Z,13.50
2018-10-06T15:48:50.529Z,13.63
2018-10-06T15:51:19.428Z,13.30
2018-10-06T15:53:48.264Z,21.77
2018-10-06T15:56:17.348Z,23.07
2018-10-06T15:58:46.240Z,25.63
2018-10-06T16:01:15.160Z,17.40
2018-10-06T16:03:43.990Z,15.00
2018-10-06T16:06:13.177Z,14.63
2018-10-06T16:08:42.483Z,14.30
2018-10-06T16:11:11.269Z,15.10
2018-10-06T16:13:40.114Z,15.03
2018-10-06T16:16:08.976Z,15.53
2018-10-06T16:18:37.999Z,14.60
2018-10-06T16:21:07.141Z,13.53
2018-10-06T16:23:36.025Z,13.80
2018-10-06T16:26:04.921Z,19.30
2018-10-06T16:28:33.812Z,20.73
2018-10-06T16:31:02.613Z,18.27
2018-10-06T16:33:31.408Z,18.10
2018-10-06T16:36:00.502Z,20.70
2018-10-06T16:38:29.366Z,16.60
2018-10-06T16:40:58.515Z,16.73
2018-10-06T16:43:27.258Z,14.27
2018-10-06T16:45:56.574Z,14.67
2018-10-06T16:48:26.269Z,13.23
2018-10-06T16:50:55.036Z,13.43
2018-10-06T16:53:25.256Z,14.10
2018-10-06T16:55:54.162Z,13.90
2018-10-06T16:58:23.083Z,13.57
2018-10-06T17:00:52.276Z,14.20
2018-10-06T17:03:21.029Z,13.83
2018-10-06T17:05:50.230Z,14.47
2018-10-06T17:08:18.981Z,15.57
2018-10-06T17:10:47.782Z,14.30
2018-10-06T17:13:16.563Z,14.80
2018-10-06T17:15:45.326Z,17.43
2018-10-06T17:18:14.440Z,15.60
2018-10-06T17:20:43.237Z,14.30
2018-10-06T17:23:12.432Z,14.40
2018-10-06T17:25:42.424Z,14.60
2018-10-06T17:28:11.630Z,14.07
2018-10-06T17:30:40.791Z,13.73
2018-10-06T17:33:11.100Z,16.97
2018-10-06T17:35:40.331Z,16.20
2018-10-06T17:38:09.449Z,15.77
2018-10-06T17:40:38.702Z,16.03
2018-10-06T17:43:08.167Z,15.70
2018-10-06T17:45:37.013Z,15.20
2018-10-06T17:48:05.953Z,14.37
2018-10-06T17:50:34.802Z,15.03
2018-10-06T17:53:03.636Z,13.80
2018-10-06T17:55:32.476Z,14.77
2018-10-06T17:58:01.468Z,13.70
2018-10-06T18:00:30.561Z,13.70
2018-10-06T18:02:59.415Z,13.77
2018-10-06T18:05:28.507Z,14.20
2018-10-06T18:07:57.257Z,14.60
2018-10-06T18:10:26.275Z,14.30
2018-10-06T18:12:55.687Z,14.20
2018-10-06T18:15:24.522Z,13.77
2018-10-06T18:17:53.371Z,14.50
2018-10-06T18:20:22.292Z,15.20
2018-10-06T18:22:51.456Z,14.00
2018-10-06T18:25:21.020Z,14.27
2018-10-06T18:27:50.225Z,15.20
2018-10-06T18:30:19.056Z,15.00
2018-10-06T18:32:47.840Z,15.23
2018-10-06T18:35:18.486Z,14.40
2018-10-06T18:37:47.496Z,14.70
2018-10-06T18:40:17.798Z,14.90
2018-10-06T18:42:48.126Z,15.87
2018-10-06T18:45:17.088Z,14.40
2018-10-06T18:47:46.368Z,15.63
2018-10-06T18:50:15.141Z,18.10
2018-10-06T18:52:44.139Z,16.67
2018-10-06T18:55:13.597Z,14.60
2018-10-06T18:57:42.532Z,16.10
2018-10-06T19:00:14.183Z,17.20
2018-10-06T19:02:43.288Z,14.60
2018-10-06T19:05:12.196Z,16.20
2018-10-06T19:07:41.036Z,15.80
2018-10-06T19:10:10.326Z,16.30
2018-10-06T19:12:39.509Z,15.80
2018-10-06T19:15:08.311Z,16.20
2018-10-06T19:17:37.466Z,16.13
2018-10-06T19:20:06.551Z,16.20
2018-10-06T19:22:35.648Z,16.90
2018-10-06T19:25:04.529Z,16.77
2018-10-06T19:27:33.486Z,16.40
2018-10-06T19:30:02.504Z,15.70
2018-10-06T19:32:31.274Z,16.87
2018-10-06T19:35:00.355Z,17.90
2018-10-06T19:37:29.228Z,17.30
2018-10-06T19:39:58.094Z,17.00
2018-10-06T19:42:26.977Z,16.27
2018-10-06T19:44:56.049Z,16.20
2018-10-06T19:47:25.015Z,16.40
2018-10-06T19:49:54.058Z,16.80
2018-10-06T19:52:23.246Z,16.10
2018-10-06T19:54:52.153Z,16.50
2018-10-06T19:57:21.046Z,16.23
2018-10-06T19:59:49.907Z,17.17
2018-10-06T20:02:19.894Z,16.70
2018-10-06T20:04:53.147Z,16.80
2018-10-06T20:07:22.348Z,17.43
2018-10-06T20:09:51.204Z,15.83
2018-10-06T20:12:20.222Z,16.83
2018-10-06T20:14:50.079Z,16.07
2018-10-06T20:17:19.188Z,15.83
2018-10-06T20:19:48.100Z,16.00
2018-10-06T20:22:16.961Z,16.27
2018-10-06T20:24:46.133Z,16.80
2018-10-06T20:27:14.975Z,17.50
2018-10-06T20:29:43.888Z,19.13
2018-10-06T20:32:12.997Z,17.10
2018-10-06T20:34:41.789Z,17.87
2018-10-06T20:37:10.637Z,20.20
2018-10-06T20:39:39.679Z,21.10
2018-10-06T20:42:10.140Z,19.10
2018-10-06T20:44:41.971Z,18.67
2018-10-06T20:47:12.120Z,19.73
2018-10-06T20:49:41.121Z,17.97
2018-10-06T20:52:10.128Z,17.17
2018-10-06T20:54:39.175Z,18.90
2018-10-06T20:57:08.125Z,17.93
2018-10-06T20:59:36.963Z,18.20
2018-10-06T21:02:06.311Z,17.73
2018-10-06T21:04:35.490Z,17.07
2018-10-06T21:07:04.401Z,17.10
2018-10-06T21:09:33.624Z,16.57
2018-10-06T21:12:02.521Z,17.40
2018-10-06T21:14:31.533Z,17.70
2018-10-06T21:17:00.813Z,17.43
2018-10-06T21:19:29.951Z,15.97
2018-10-06T21:21:58.856Z,16.23
2018-10-06T21:24:28.115Z,16.10
2018-10-06T21:26:57.241Z,16.60
2018-10-06T21:29:26.476Z,15.90
2018-10-06T21:31:56.489Z,15.80
2018-10-06T21:34:25.339Z,16.77
2018-10-06T21:36:55.217Z,16.30
2018-10-06T21:39:24.172Z,16.13
2018-10-06T21:41:53.528Z,16.93
2018-10-06T21:44:23.801Z,16.47
2018-10-06T21:46:59.162Z,15.37
2018-10-06T21:49:29.872Z,16.07
2018-10-06T21:52:00.401Z,15.80
2018-10-06T21:54:31.335Z,18.10
2018-10-06T21:57:01.995Z,16.33
2018-10-06T21:59:31.338Z,16.40
2018-10-06T22:02:00.365Z,17.00
2018-10-06T22:04:29.377Z,14.97
2018-10-06T22:06:58.367Z,15.00
2018-10-06T22:09:27.693Z,14.90
2018-10-06T22:11:56.625Z,15.23
2018-10-06T22:14:25.845Z,15.13
2018-10-06T22:16:54.913Z,16.07
2018-10-06T22:19:23.893Z,15.13
2018-10-06T22:21:53.705Z,15.10
2018-10-06T22:24:22.889Z,18.87
2018-10-06T22:26:51.880Z,14.83
2018-10-06T22:29:22.174Z,14.97
2018-10-06T22:31:52.220Z,14.97
2018-10-06T22:34:22.797Z,15.10
2018-10-06T22:36:51.753Z,15.20
2018-10-06T22:39:20.680Z,14.50
2018-10-06T22:41:49.777Z,14.87
2018-10-06T22:44:19.680Z,14.80
2018-10-06T22:46:49.565Z,15.57
2018-10-06T22:49:18.630Z,14.90
2018-10-06T22:51:48.003Z,15.00
2018-10-06T22:54:17.756Z,14.93
2018-10-06T22:56:46.605Z,14.33
2018-10-06T22:59:15.459Z,15.10
2018-10-06T23:01:44.278Z,16.17
2018-10-06T23:04:13.441Z,15.17
2018-10-06T23:06:42.947Z,15.30
2018-10-06T23:09:12.677Z,15.73
2018-10-06T23:11:41.801Z,14.97
2018-10-06T23:14:11.272Z,16.67
2018-10-06T23:16:40.814Z,15.10
2018-10-06T23:19:10.104Z,15.53
2018-10-06T23:21:39.688Z,14.90
2018-10-06T23:24:08.438Z,15.50
2018-10-06T23:26:37.610Z,16.20
2018-10-06T23:29:06.393Z,15.60
2018-10-06T23:31:35.487Z,15.00
2018-10-06T23:34:04.790Z,15.17
2018-10-06T23:36:34.594Z,15.20
2018-10-06T23:39:05.179Z,15.73
2018-10-06T23:41:35.555Z,14.87
2018-10-06T23:44:05.528Z,15.03
2018-10-06T23:46:35.691Z,15.50
2018-10-06T23:49:06.222Z,14.93
2018-10-06T23:51:34.964Z,14.57
2018-10-06T23:54:04.090Z,15.73
2018-10-06T23:56:34.415Z,15.87
2018-10-06T23:59:04.050Z,16.17
